createdAt,value
2023-01-27T00:01:10.840Z,98859.13
2023-01-27T00:03:38.441Z,98852.16
2023-01-27T00:06:12.287Z,98847.66
2023-01-27T00:08:40.216Z,98854.59
2023-01-27T00:11:28.953Z,98852.19
2023-01-27T00:13:56.827Z,98856.31
2023-01-27T00:16:24.329Z,98873.84
2023-01-27T00:18:51.882Z,98863.00
2023-01-27T00:21:38.007Z,98863.91
2023-01-27T00:24:24.239Z,98873.34
2023-01-27T00:26:51.871Z,98874.84
2023-01-27T00:29:19.372Z,98873.53
2023-01-27T00:32:05.422Z,98881.41
2023-01-27T00:34:33.965Z,98877.22
2023-01-27T00:37:04.468Z,98868.88
2023-01-27T00:39:33.888Z,98866.19
2023-01-27T00:42:02.125Z,98860.53
2023-01-27T00:44:29.723Z,98865.63
2023-01-27T00:46:57.524Z,98851.56
2023-01-27T00:49:25.255Z,98846.03
2023-01-27T00:51:52.737Z,98847.72
2023-01-27T00:54:20.498Z,98851.88
2023-01-27T00:56:48.753Z,98858.16
2023-01-27T00:59:16.369Z,98849.81
2023-01-27T01:01:43.896Z,98850.53
2023-01-27T01:04:12.877Z,98834.56
2023-01-27T01:06:40.369Z,98833.56
2023-01-27T01:09:07.960Z,98825.84
2023-01-27T01:11:35.545Z,98808.41
2023-01-27T01:14:03.220Z,98795.44
2023-01-27T01:16:30.909Z,98779.00
2023-01-27T01:18:59.157Z,98761.41
2023-01-27T01:21:26.706Z,98755.22
2023-01-27T01:23:54.347Z,98764.88
2023-01-27T01:26:22.492Z,98781.41
2023-01-27T01:28:50.406Z,98784.97
2023-01-27T01:31:20.874Z,98792.22
2023-01-27T01:33:49.707Z,98820.06
2023-01-27T01:36:21.467Z,98826.59
2023-01-27T01:38:49.397Z,98834.84
2023-01-27T01:41:20.170Z,98833.81
2023-01-27T01:43:49.907Z,98839.16
2023-01-27T01:46:18.974Z,98844.31
2023-01-27T01:48:58.691Z,98836.78
2023-01-27T01:51:32.875Z,98815.47
2023-01-27T01:54:16.886Z,98799.28
2023-01-27T01:57:00.987Z,98797.53
2023-01-27T01:59:39.370Z,98788.44
2023-01-27T02:02:13.353Z,98773.41
2023-01-27T02:04:55.487Z,98767.16
2023-01-27T02:07:51.915Z,98758.72
2023-01-27T02:10:19.537Z,98761.81
2023-01-27T02:12:47.457Z,98773.16
2023-01-27T02:15:15.589Z,98768.38
2023-01-27T02:17:43.652Z,98762.28
2023-01-27T02:20:52.130Z,98754.34
2023-01-27T02:23:40.738Z,98751.25
2023-01-27T02:26:09.903Z,98755.75
2023-01-27T02:28:37.526Z,98758.59
2023-01-27T02:31:05.463Z,98747.69
2023-01-27T02:33:34.923Z,98734.09
2023-01-27T02:36:09.928Z,98705.19
2023-01-27T02:38:48.728Z,98693.09
2023-01-27T02:41:28.131Z,98715.44
2023-01-27T02:43:56.700Z,98743.56
2023-01-27T02:46:24.686Z,98739.03
2023-01-27T02:48:52.480Z,98738.72
2023-01-27T02:51:20.124Z,98755.09
2023-01-27T02:53:48.158Z,98747.03
2023-01-27T02:56:15.673Z,98732.28
2023-01-27T02:58:47.124Z,98737.06
2023-01-27T03:01:25.647Z,98740.91
2023-01-27T03:03:53.447Z,98745.13
2023-01-27T03:06:21.343Z,98734.25
2023-01-27T03:08:49.418Z,98734.44
2023-01-27T03:11:37.808Z,98737.59
2023-01-27T03:14:06.934Z,98729.56
2023-01-27T03:16:53.034Z,98717.78
2023-01-27T03:19:21.032Z,98709.31
2023-01-27T03:21:52.919Z,98701.50
2023-01-27T03:24:22.337Z,98713.34
2023-01-27T03:26:50.381Z,98720.94
2023-01-27T03:29:39.052Z,98714.72
2023-01-27T03:32:07.028Z,98719.09
2023-01-27T03:34:35.014Z,98730.25
2023-01-27T03:37:29.094Z,98744.34
2023-01-27T03:40:15.592Z,98743.81
2023-01-27T03:43:01.799Z,98732.38
2023-01-27T03:45:47.916Z,98731.72
2023-01-27T03:48:18.510Z,98729.47
2023-01-27T03:50:53.100Z,98725.03
2023-01-27T03:53:21.557Z,98731.38
2023-01-27T03:55:49.250Z,98750.91
2023-01-27T03:58:23.887Z,98763.41
2023-01-27T04:00:55.301Z,98753.78
2023-01-27T04:03:45.548Z,98752.09
2023-01-27T04:06:39.385Z,98734.22
2023-01-27T04:09:09.119Z,98730.59
2023-01-27T04:11:55.336Z,98728.88
2023-01-27T04:14:42.198Z,98719.34
2023-01-27T04:17:18.979Z,98705.84
2023-01-27T04:19:48.036Z,98701.25
2023-01-27T04:22:16.908Z,98691.84
2023-01-27T04:24:44.918Z,98681.59
2023-01-27T04:27:15.735Z,98687.38
2023-01-27T04:29:43.714Z,98684.38
2023-01-27T04:32:14.079Z,98696.72
2023-01-27T04:34:42.380Z,98707.66
2023-01-27T04:37:11.447Z,98687.06
2023-01-27T04:39:39.212Z,98679.81
2023-01-27T04:42:06.769Z,98677.22
2023-01-27T04:44:34.272Z,98691.06
2023-01-27T04:47:02.256Z,98691.59
2023-01-27T04:49:29.813Z,98684.03
2023-01-27T04:51:57.472Z,98688.81
2023-01-27T04:54:25.043Z,98686.66
2023-01-27T04:57:03.531Z,98687.69
2023-01-27T04:59:34.157Z,98680.16
2023-01-27T05:02:01.965Z,98682.03
2023-01-27T05:04:29.508Z,98677.56
2023-01-27T05:06:57.116Z,98688.56
2023-01-27T05:09:24.908Z,98679.97
2023-01-27T05:11:52.603Z,98689.16
2023-01-27T05:14:20.376Z,98703.16
2023-01-27T05:16:48.053Z,98712.16
2023-01-27T05:19:15.590Z,98727.44
2023-01-27T05:21:43.518Z,98732.53
2023-01-27T05:24:11.917Z,98726.41
2023-01-27T05:26:39.692Z,98727.94
2023-01-27T05:29:07.324Z,98721.59
2023-01-27T05:31:35.021Z,98715.41
2023-01-27T05:34:03.594Z,98705.41
2023-01-27T05:36:32.005Z,98718.81
2023-01-27T05:39:00.375Z,98714.22
2023-01-27T05:41:34.935Z,98718.13
2023-01-27T05:44:02.783Z,98716.69
2023-01-27T05:46:32.255Z,98718.06
2023-01-27T05:49:05.219Z,98722.50
2023-01-27T05:51:37.872Z,98725.94
2023-01-27T05:54:05.958Z,98737.28
2023-01-27T05:56:33.975Z,98737.47
2023-01-27T05:59:02.057Z,98738.56
2023-01-27T06:01:32.709Z,98727.47
2023-01-27T06:04:01.286Z,98719.56
2023-01-27T06:06:31.249Z,98721.16
2023-01-27T06:08:59.445Z,98707.13
2023-01-27T06:11:27.330Z,98705.72
2023-01-27T06:13:56.499Z,98692.31
2023-01-27T06:16:24.621Z,98697.88
2023-01-27T06:18:52.788Z,98698.41
2023-01-27T06:21:20.949Z,98713.47
2023-01-27T06:23:49.542Z,98717.38
2023-01-27T06:26:19.981Z,98721.16
2023-01-27T06:28:48.134Z,98726.75
2023-01-27T06:31:21.681Z,98725.41
2023-01-27T06:33:50.772Z,98720.78
2023-01-27T06:36:22.051Z,98729.44
2023-01-27T06:38:50.495Z,98736.13
2023-01-27T06:41:18.420Z,98734.34
2023-01-27T06:43:46.075Z,98726.75
2023-01-27T06:46:15.080Z,98725.97
2023-01-27T06:48:44.167Z,98727.22
2023-01-27T06:51:12.027Z,98724.81
2023-01-27T06:53:39.679Z,98728.50
2023-01-27T06:56:07.903Z,98720.69
2023-01-27T06:58:35.549Z,98727.28
2023-01-27T07:01:06.994Z,98728.81
2023-01-27T07:03:37.595Z,98721.50
2023-01-27T07:06:06.158Z,98718.97
2023-01-27T07:08:33.707Z,98720.63
2023-01-27T07:11:05.595Z,98718.28
2023-01-27T07:13:33.449Z,98716.72
2023-01-27T07:16:01.705Z,98718.91
2023-01-27T07:18:29.592Z,98714.75
2023-01-27T07:20:57.145Z,98714.81
2023-01-27T07:23:24.684Z,98708.00
2023-01-27T07:25:52.157Z,98712.72
2023-01-27T07:28:19.644Z,98716.28
2023-01-27T07:30:47.497Z,98733.81
2023-01-27T07:33:15.811Z,98726.09
2023-01-27T07:35:43.747Z,98726.03
2023-01-27T07:38:11.750Z,98731.03
2023-01-27T07:40:39.308Z,98733.31
2023-01-27T07:43:06.881Z,98727.25
2023-01-27T07:45:35.721Z,98734.56
2023-01-27T07:48:08.954Z,98732.22
2023-01-27T07:50:39.212Z,98729.97
2023-01-27T07:53:07.082Z,98725.06
2023-01-27T07:55:34.990Z,98719.44
2023-01-27T07:58:03.419Z,98721.69
2023-01-27T08:00:31.846Z,98715.34
2023-01-27T08:03:01.051Z,98716.31
2023-01-27T08:05:32.333Z,98716.38
2023-01-27T08:08:03.717Z,98715.09
2023-01-27T08:10:32.096Z,98710.97
2023-01-27T08:12:59.680Z,98713.00
2023-01-27T08:15:27.295Z,98707.56
2023-01-27T08:17:57.486Z,98704.88
2023-01-27T08:20:27.542Z,98698.78
2023-01-27T08:22:56.648Z,98685.19
2023-01-27T08:25:24.986Z,98689.19
2023-01-27T08:27:54.298Z,98686.47
2023-01-27T08:30:22.948Z,98693.22
2023-01-27T08:32:51.628Z,98689.88
2023-01-27T08:35:19.414Z,98687.81
2023-01-27T08:37:48.914Z,98684.88
2023-01-27T08:40:17.827Z,98691.97
2023-01-27T08:42:45.449Z,98697.78
2023-01-27T08:45:13.285Z,98690.47
2023-01-27T08:47:40.884Z,98689.53
2023-01-27T08:50:11.128Z,98684.63
2023-01-27T08:52:39.341Z,98680.34
2023-01-27T08:55:11.138Z,98672.22
2023-01-27T08:57:42.651Z,98667.84
2023-01-27T09:00:13.561Z,98663.72
2023-01-27T09:02:42.356Z,98660.03
2023-01-27T09:05:09.982Z,98657.66
2023-01-27T09:07:38.573Z,98658.84
2023-01-27T09:10:20.038Z,98654.34
2023-01-27T09:12:48.230Z,98666.59
2023-01-27T09:15:16.289Z,98660.59
2023-01-27T09:17:44.119Z,98666.69
2023-01-27T09:20:13.291Z,98673.34
2023-01-27T09:22:42.318Z,98672.53
2023-01-27T09:25:16.103Z,98673.00
2023-01-27T09:27:44.725Z,98671.44
2023-01-27T09:30:17.022Z,98672.19
2023-01-27T09:32:44.696Z,98667.19
2023-01-27T09:35:12.799Z,98671.13
2023-01-27T09:37:52.689Z,98666.91
2023-01-27T09:40:39.651Z,98661.94
2023-01-27T09:43:40.306Z,98660.09
2023-01-27T09:46:40.801Z,98650.03
2023-01-27T09:49:38.752Z,98637.56
2023-01-27T09:52:47.561Z,98637.91
2023-01-27T09:55:41.082Z,98630.34
2023-01-27T09:58:29.634Z,98620.78
2023-01-27T10:01:14.260Z,98619.06
2023-01-27T10:04:25.883Z,98606.56
2023-01-27T10:07:24.446Z,98603.84
2023-01-27T10:10:17.860Z,98601.84
2023-01-27T10:13:15.594Z,98608.94
2023-01-27T10:16:26.612Z,98623.00
2023-01-27T10:19:06.243Z,98617.91
2023-01-27T10:22:24.981Z,98623.38
2023-01-27T10:25:29.504Z,98617.72
2023-01-27T10:28:05.325Z,98621.06
2023-01-27T10:30:57.121Z,98605.69
2023-01-27T10:34:01.820Z,98598.94
2023-01-27T10:36:46.166Z,98587.59
2023-01-27T10:39:25.356Z,98584.31
2023-01-27T10:42:06.516Z,98586.16
2023-01-27T10:45:02.412Z,98583.56
2023-01-27T10:47:54.495Z,98577.81
2023-01-27T10:50:31.205Z,98576.66
2023-01-27T10:53:16.953Z,98577.00
2023-01-27T10:56:16.772Z,98574.22
2023-01-27T10:59:20.108Z,98575.00
2023-01-27T11:02:24.960Z,98566.03
2023-01-27T11:05:03.973Z,98567.94
2023-01-27T11:07:45.030Z,98554.22
2023-01-27T11:10:20.448Z,98554.03
2023-01-27T11:12:55.121Z,98557.19
2023-01-27T11:15:35.468Z,98555.25
2023-01-27T11:18:34.505Z,98543.38
2023-01-27T11:21:07.487Z,98543.06
2023-01-27T11:23:49.031Z,98543.22
2023-01-27T11:26:59.808Z,98541.56
2023-01-27T11:29:43.972Z,98534.88
2023-01-27T11:32:31.458Z,98545.41
2023-01-27T11:35:08.359Z,98545.66
2023-01-27T11:37:58.214Z,98539.56
2023-01-27T11:40:38.515Z,98539.09
2023-01-27T11:43:06.627Z,98527.47
2023-01-27T11:45:38.232Z,98531.56
2023-01-27T11:48:17.294Z,98531.09
2023-01-27T11:50:46.616Z,98515.72
2023-01-27T11:53:36.963Z,98525.19
2023-01-27T11:56:18.783Z,98528.25
2023-01-27T11:59:02.057Z,98532.41
2023-01-27T12:01:51.276Z,98540.03
2023-01-27T12:04:52.504Z,98542.22
2023-01-27T12:08:01.528Z,98544.16
2023-01-27T12:10:39.268Z,98551.94
2023-01-27T12:13:18.743Z,98545.38
2023-01-27T12:16:01.794Z,98543.47
2023-01-27T12:18:35.090Z,98533.59
2023-01-27T12:21:10.152Z,98528.91
2023-01-27T12:23:49.160Z,98528.59
2023-01-27T12:26:39.419Z,98525.25
2023-01-27T12:29:19.553Z,98513.16
2023-01-27T12:31:51.251Z,98503.00
2023-01-27T12:34:46.433Z,98514.00
2023-01-27T12:37:34.127Z,98514.97
2023-01-27T12:40:16.345Z,98511.03
2023-01-27T12:42:53.169Z,98506.56
2023-01-27T12:45:41.905Z,98508.34
2023-01-27T12:48:18.870Z,98501.75
2023-01-27T12:50:52.712Z,98507.41
2023-01-27T12:53:28.366Z,98499.84
2023-01-27T12:56:12.132Z,98496.03
2023-01-27T12:58:57.975Z,98494.25
2023-01-27T13:01:35.582Z,98498.28
2023-01-27T13:04:26.977Z,98502.13
2023-01-27T13:07:07.363Z,98497.56
2023-01-27T13:09:50.918Z,98498.81
2023-01-27T13:12:28.101Z,98493.59
2023-01-27T13:15:15.719Z,98491.38
2023-01-27T13:17:52.111Z,98491.44
2023-01-27T13:20:29.949Z,98488.53
2023-01-27T13:23:04.028Z,98485.75
2023-01-27T13:25:44.827Z,98481.16
2023-01-27T13:28:52.811Z,98487.38
2023-01-27T13:31:36.894Z,98482.78
2023-01-27T13:34:40.291Z,98491.56
2023-01-27T13:37:17.063Z,98497.53
2023-01-27T13:40:29.996Z,98505.78
2023-01-27T13:43:14.682Z,98504.88
2023-01-27T13:45:48.731Z,98510.97
2023-01-27T13:48:39.491Z,98494.03
2023-01-27T13:51:16.512Z,98488.75
2023-01-27T13:53:47.715Z,98500.53
2023-01-27T13:56:18.174Z,98504.19
2023-01-27T13:59:00.225Z,98504.81
2023-01-27T14:02:01.825Z,98508.44
2023-01-27T14:04:59.717Z,98502.28
2023-01-27T14:07:48.841Z,98511.31
2023-01-27T14:10:37.018Z,98512.91
2023-01-27T14:13:18.974Z,98515.72
2023-01-27T14:16:27.392Z,98516.47
2023-01-27T14:19:14.439Z,98524.19
2023-01-27T14:21:56.264Z,98526.72
2023-01-27T14:24:58.755Z,98537.94
2023-01-27T14:27:38.507Z,98535.06
2023-01-27T14:30:42.234Z,98529.41
2023-01-27T14:33:24.551Z,98526.75
2023-01-27T14:36:27.493Z,98530.50
2023-01-27T14:39:38.918Z,98529.13
2023-01-27T14:42:39.961Z,98526.00
2023-01-27T14:45:34.555Z,98539.56
2023-01-27T14:48:14.691Z,98534.38
2023-01-27T14:51:05.516Z,98542.16
2023-01-27T14:54:17.251Z,98538.94
2023-01-27T14:57:09.317Z,98530.59
2023-01-27T14:59:43.883Z,98527.41
2023-01-27T15:02:16.905Z,98530.34
2023-01-27T15:05:11.365Z,98526.91
2023-01-27T15:08:10.547Z,98535.59
2023-01-27T15:10:53.217Z,98544.56
2023-01-27T15:14:07.569Z,98543.00
2023-01-27T15:17:53.139Z,98538.75
2023-01-27T15:20:37.032Z,98548.81
2023-01-27T15:23:36.893Z,98540.78
2023-01-27T15:26:09.029Z,98547.53
2023-01-27T15:28:41.907Z,98546.09
2023-01-27T15:31:29.258Z,98544.50
2023-01-27T15:34:21.342Z,98551.34
2023-01-27T15:37:33.408Z,98551.25
2023-01-27T15:40:17.085Z,98544.38
2023-01-27T15:42:51.413Z,98544.00
2023-01-27T15:45:42.635Z,98544.81
2023-01-27T15:48:23.600Z,98544.69
2023-01-27T15:51:01.462Z,98538.84
2023-01-27T15:53:52.678Z,98546.84
2023-01-27T15:56:20.905Z,98542.44
2023-01-27T15:59:05.153Z,98551.25
2023-01-27T16:01:37.114Z,98554.94
2023-01-27T16:04:23.371Z,98560.44
2023-01-27T16:07:03.548Z,98568.69
2023-01-27T16:09:45.653Z,98570.28
2023-01-27T16:12:32.301Z,98571.28
2023-01-27T16:15:21.931Z,98569.31
2023-01-27T16:18:08.368Z,98570.66
2023-01-27T16:21:06.970Z,98565.00
2023-01-27T16:23:53.193Z,98569.50
2023-01-27T16:26:42.610Z,98570.75
2023-01-27T16:29:32.938Z,98572.31
2023-01-27T16:32:23.423Z,98574.94
2023-01-27T16:35:05.869Z,98583.47
2023-01-27T16:37:39.721Z,98574.78
2023-01-27T16:40:22.701Z,98578.84
2023-01-27T16:42:53.221Z,98576.59
2023-01-27T16:45:39.316Z,98576.72
2023-01-27T16:48:30.272Z,98591.97
2023-01-27T16:51:26.189Z,98594.06
2023-01-27T16:54:01.142Z,98593.06
2023-01-27T16:56:40.230Z,98589.94
2023-01-27T16:59:33.890Z,98586.69
2023-01-27T17:02:36.184Z,98594.97
2023-01-27T17:05:16.606Z,98596.44
2023-01-27T17:08:23.799Z,98599.50
2023-01-27T17:11:35.927Z,98599.03
2023-01-27T17:14:28.439Z,98597.78
2023-01-27T17:17:03.314Z,98598.66
2023-01-27T17:19:38.271Z,98600.66
2023-01-27T17:22:22.712Z,98600.47
2023-01-27T17:24:57.090Z,98603.97
2023-01-27T17:27:38.829Z,98607.41
2023-01-27T17:30:23.218Z,98604.31
2023-01-27T17:33:04.964Z,98604.22
2023-01-27T17:35:42.130Z,98618.56
2023-01-27T17:38:49.159Z,98614.91
2023-01-27T17:41:33.179Z,98614.31
2023-01-27T17:44:02.505Z,98614.06
2023-01-27T17:46:35.305Z,98618.00
2023-01-27T17:49:10.740Z,98625.09
2023-01-27T17:51:53.654Z,98628.00
2023-01-27T17:54:34.219Z,98627.91
2023-01-27T17:57:33.125Z,98626.56
2023-01-27T18:00:13.138Z,98630.69
2023-01-27T18:03:06.831Z,98619.81
2023-01-27T18:05:42.358Z,98624.03
2023-01-27T18:08:13.788Z,98627.22
2023-01-27T18:10:46.063Z,98636.28
2023-01-27T18:13:32.320Z,98632.78
2023-01-27T18:16:20.549Z,98634.03
2023-01-27T18:18:50.681Z,98640.31
2023-01-27T18:21:28.813Z,98633.22
2023-01-27T18:24:01.731Z,98638.78
2023-01-27T18:26:42.499Z,98636.44
2023-01-27T18:29:40.840Z,98632.41
2023-01-27T18:32:27.711Z,98640.38
2023-01-27T18:35:06.599Z,98637.53
2023-01-27T18:37:40.294Z,98640.69
2023-01-27T18:40:30.636Z,98645.19
2023-01-27T18:43:01.308Z,98653.75
2023-01-27T18:45:30.893Z,98656.06
2023-01-27T18:48:07.369Z,98657.59
2023-01-27T18:50:47.596Z,98654.78
2023-01-27T18:53:22.709Z,98657.31
2023-01-27T18:55:53.778Z,98660.38
2023-01-27T18:58:27.105Z,98657.53
2023-01-27T19:00:59.811Z,98663.81
2023-01-27T19:03:36.619Z,98662.78
2023-01-27T19:06:09.343Z,98667.78
2023-01-27T19:08:40.159Z,98670.03
2023-01-27T19:11:14.372Z,98666.44
2023-01-27T19:13:45.631Z,98672.25
2023-01-27T19:16:20.210Z,98670.09
2023-01-27T19:18:50.189Z,98673.19
2023-01-27T19:21:26.933Z,98668.00
2023-01-27T19:23:58.420Z,98669.63
2023-01-27T19:26:40.263Z,98671.69
2023-01-27T19:29:15.157Z,98685.41
2023-01-27T19:31:45.942Z,98677.22
2023-01-27T19:34:22.241Z,98684.75
2023-01-27T19:36:58.317Z,98683.28
2023-01-27T19:39:29.596Z,98688.94
2023-01-27T19:41:58.856Z,98678.53
2023-01-27T19:47:20.678Z,98685.88
2023-01-27T19:49:53.572Z,98695.19
2023-01-27T19:52:21.735Z,98697.63
2023-01-27T19:54:50.062Z,98692.81
2023-01-27T19:57:38.343Z,98690.81
2023-01-27T20:00:07.821Z,98705.84
2023-01-27T20:02:40.319Z,98700.50
2023-01-27T20:05:14.532Z,98707.63
2023-01-27T20:07:45.263Z,98695.66
2023-01-27T20:10:24.154Z,98707.72
2023-01-27T20:13:00.015Z,98704.03
2023-01-27T20:15:35.382Z,98701.59
2023-01-27T20:18:11.019Z,98706.03
2023-01-27T20:20:42.211Z,98708.78
2023-01-27T20:23:14.580Z,98711.16
2023-01-27T20:25:45.214Z,98713.38
2023-01-27T20:28:16.910Z,98708.19
2023-01-27T20:30:44.941Z,98716.66
2023-01-27T20:33:14.816Z,98715.66
2023-01-27T20:35:42.987Z,98707.94
2023-01-27T20:38:10.933Z,98711.63
2023-01-27T20:40:39.152Z,98711.16
2023-01-27T20:43:08.361Z,98721.31
2023-01-27T20:45:38.980Z,98726.78
2023-01-27T20:48:06.774Z,98719.88
2023-01-27T20:50:34.424Z,98728.59
2023-01-27T20:53:02.431Z,98734.22
2023-01-27T20:55:31.430Z,98729.81
2023-01-27T20:58:01.383Z,98741.72
2023-01-27T21:00:29.242Z,98742.00
2023-01-27T21:02:57.469Z,98729.41
2023-01-27T21:10:03.879Z,98738.94
2023-01-27T21:12:31.765Z,98744.94
2023-01-27T21:15:01.959Z,98744.03
2023-01-27T21:17:29.624Z,98751.50
2023-01-27T21:19:57.260Z,98754.13
2023-01-27T21:22:25.097Z,98760.66
2023-01-27T21:24:52.686Z,98764.09
2023-01-27T21:27:22.902Z,98759.84
2023-01-27T21:29:50.849Z,98765.31
2023-01-27T21:32:18.432Z,98775.34
2023-01-27T21:34:48.406Z,98773.19
2023-01-27T21:37:16.057Z,98765.41
2023-01-27T21:39:45.920Z,98773.22
2023-01-27T21:42:37.848Z,98769.78
2023-01-27T21:45:25.464Z,98779.75
2023-01-27T21:47:54.521Z,98773.56
2023-01-27T21:50:22.387Z,98776.84
2023-01-27T21:53:11.852Z,98787.25
2023-01-27T21:55:39.719Z,98784.09
2023-01-27T21:58:07.387Z,98786.78
2023-01-27T22:00:36.440Z,98790.81
2023-01-27T22:03:07.683Z,98796.47
2023-01-27T22:05:39.441Z,98791.75
2023-01-27T22:08:08.636Z,98791.25
2023-01-27T22:10:36.910Z,98788.94
2023-01-27T22:13:06.108Z,98790.06
2023-01-27T22:15:34.000Z,98786.81
2023-01-27T22:18:03.163Z,98787.03
2023-01-27T22:20:32.255Z,98788.50
2023-01-27T22:23:00.843Z,98784.66
2023-01-27T22:25:28.745Z,98791.66
2023-01-27T22:27:57.945Z,98785.97
2023-01-27T22:30:26.996Z,98787.72
2023-01-27T22:32:57.721Z,98780.59
2023-01-27T22:35:25.882Z,98792.78
2023-01-27T22:37:55.140Z,98785.13
2023-01-27T22:40:23.583Z,98788.81
2023-01-27T22:42:51.697Z,98789.53
2023-01-27T22:45:19.334Z,98783.84
2023-01-27T22:47:47.153Z,98780.91
2023-01-27T22:50:15.159Z,98790.06
2023-01-27T22:52:44.869Z,98792.84
2023-01-27T22:55:15.653Z,98790.50
2023-01-27T22:57:47.908Z,98791.81
2023-01-27T23:00:19.710Z,98796.34
2023-01-27T23:02:49.024Z,98792.91
2023-01-27T23:05:17.148Z,98788.22
2023-01-27T23:07:46.490Z,98797.06
2023-01-27T23:10:14.898Z,98800.50
2023-01-27T23:12:42.533Z,98799.19
2023-01-27T23:15:10.798Z,98802.25
2023-01-27T23:17:38.477Z,98797.78
2023-01-27T23:20:07.121Z,98796.00
2023-01-27T23:22:35.133Z,98802.53
2023-01-27T23:25:03.215Z,98809.25
2023-01-27T23:27:30.950Z,98805.69
2023-01-27T23:29:59.074Z,98811.88
2023-01-27T23:32:26.687Z,98818.81
2023-01-27T23:34:55.609Z,98812.47
2023-01-27T23:37:27.237Z,98815.03
2023-01-27T23:39:55.540Z,98816.50
2023-01-27T23:42:23.140Z,98816.19
2023-01-27T23:44:52.237Z,98825.47
2023-01-27T23:47:19.759Z,98822.88
2023-01-27T23:49:47.430Z,98821.53
2023-01-27T23:52:15.050Z,98823.16
2023-01-27T23:54:43.161Z,98828.63
2023-01-27T23:57:10.808Z,98826.81
2023-01-27T23:59:38.429Z,98832.00
